Back to Top

Language: 

My Weather Underground Personal Weather Station Historical Data with Graphs...

Delerius Weather Station Historical Data
Daily Summary for November 2, 2017 Units:  Metric    English   Both
« Previous Day
Next Day »
Daily Weekly Monthly Yearly Custom
  High: Low: Average:
Temperature: 10.9 °C 8.3 °C 9.4 °C
Dew Point: 9.6 °C 6.8 °C 7.6 °C
Humidity: 96 % 78 % 88 %
Wind Speed: 12.9 km/h 0 km/h 2.4 km/h
Wind Gust: 19.3 km/h - -
Wind:- - SW
Pressure: 1016.5 hPa 1012.8 hPa -
Precipitation: 0.51 mm    
Historical Graphs
 
 
Tabular Data for November 2, 2017
Time Temperature Dew Point Pressure Wind Wind Speed Wind Gust Humidity Rainfall Rate (Hourly) solar Conditions
00:04 9.5 °C 8.3 °C 1013.4 hPa WSW 1.6 km/h 4.8 km/h 92 % 0 mm 0 W/m2
00:09 9.4 °C 8.2 °C 1013.4 hPa Calm   3.2 km/h 92 % 0 mm 0 W/m2
00:14 9.3 °C 7.9 °C 1013.4 hPa Calm   1.6 km/h 91 % 0 mm 0 W/m2
00:19 9.1 °C 7.7 °C 1013.4 hPa WSW 4.8 km/h 8 km/h 91 % 0 mm 0 W/m2
00:24 9.1 °C 7.9 °C 1013.4 hPa West 4.8 km/h 9.7 km/h 92 % 0 mm 0 W/m2
00:29 9.2 °C 8.1 °C 1013.4 hPa SW 4.8 km/h 9.7 km/h 93 % 0 mm 0 W/m2
00:34 9.3 °C 8.2 °C 1013.1 hPa SW 3.2 km/h 9.7 km/h 93 % 0 mm 0 W/m2
00:39 9.4 °C 8.5 °C 1013.1 hPa SSW 4.8 km/h 9.7 km/h 94 % 0 mm 0 W/m2
00:44 9.5 °C 8.4 °C 1013.1 hPa Calm   1.6 km/h 93 % 0 mm 0 W/m2
00:49 9.5 °C 8.4 °C 1013.1 hPa Calm   3.2 km/h 93 % 0 mm 0 W/m2
00:54 9.5 °C 8.4 °C 1013.1 hPa SSW 3.2 km/h 6.4 km/h 93 % 0 mm 0 W/m2
00:59 9.6 °C 8.5 °C 1013.1 hPa Calm   3.2 km/h 93 % 0 mm 0 W/m2
01:04 9.6 °C 8.5 °C 1013.1 hPa Calm     93 % 0 mm 0 W/m2
01:09 9.7 °C 8.8 °C 1013.1 hPa Calm   6.4 km/h 94 % 0 mm 0 W/m2
01:14 9.8 °C 8.9 °C 1013.1 hPa Calm   3.2 km/h 94 % 0 mm 0 W/m2
01:19 9.9 °C 9 °C 1013.4 hPa Calm   3.2 km/h 94 % 0 mm 0 W/m2
01:24 9.9 °C 9 °C 1013.4 hPa Calm   6.4 km/h 94 % 0 mm 0 W/m2
01:29 10 °C 9.1 °C 1013.4 hPa West 1.6 km/h 4.8 km/h 94 % 0 mm 0 W/m2
01:34 10.1 °C 9.2 °C 1013.1 hPa West 1.6 km/h 4.8 km/h 94 % 0 mm 0 W/m2
01:39 10.2 °C 9.3 °C 1013.1 hPa WNW 4.8 km/h 9.7 km/h 94 % 0 mm 0 W/m2
01:44 10.3 °C 9.4 °C 1013.1 hPa West 8 km/h 14.5 km/h 94 % 0 mm 0 W/m2
01:49 10.4 °C 9.5 °C 1013.1 hPa West 8 km/h 12.9 km/h 94 % 0 mm 0 W/m2
01:54 10.5 °C 9.6 °C 1013.1 hPa West 8 km/h 12.9 km/h 94 % 0 mm 0 W/m2
01:59 10.6 °C 9.5 °C 1013.1 hPa West 6.4 km/h 11.3 km/h 93 % 0 mm 0 W/m2
02:05 10.6 °C 9.5 °C 1013.1 hPa West 4.8 km/h 9.7 km/h 93 % 0 mm 0 W/m2
02:10 10.6 °C 9.5 °C 1013.1 hPa West 8 km/h 12.9 km/h 93 % 0 mm 0 W/m2
02:15 10.6 °C 9.5 °C 1013.1 hPa West 9.7 km/h 16.1 km/h 93 % 0 mm 0 W/m2
02:21 10.6 °C 9.5 °C 1013.1 hPa WNW 8 km/h 16.1 km/h 93 % 0 mm 0 W/m2
02:26 10.6 °C 9.3 °C 1013.1 hPa NW 4.8 km/h 16.1 km/h 92 % 0 mm 0 W/m2
02:31 10.6 °C 9.3 °C 1013.1 hPa Calm     92 % 0 mm 0 W/m2
02:36 10.5 °C 9.3 °C 1013.1 hPa Calm     92 % 0 mm 0 W/m2
02:41 10.4 °C 9.2 °C 1013.1 hPa NW 1.6 km/h 6.4 km/h 92 % 0 mm 0 W/m2
02:46 10.3 °C 9.1 °C 1013.1 hPa NW 1.6 km/h 3.2 km/h 92 % 0 mm 0 W/m2
02:51 10.2 °C 8.9 °C 1013.1 hPa Calm     92 % 0 mm 0 W/m2
02:56 10.1 °C 8.8 °C 1013.1 hPa Calm     92 % 0 mm 0 W/m2
03:01 9.9 °C 8.5 °C 1013.1 hPa Calm     91 % 0 mm 0 W/m2
03:06 9.7 °C 8.3 °C 1013.1 hPa Calm     91 % 0 mm 0 W/m2
03:11 9.6 °C 8.4 °C 1013.1 hPa Calm     92 % 0 mm 0 W/m2
03:16 9.4 °C 8.2 °C 1013.1 hPa Calm     92 % 0 mm 0 W/m2
03:21 9.4 °C 8.2 °C 1013.1 hPa Calm     92 % 0 mm 0 W/m2
03:26 9.3 °C 8.2 °C 1013.1 hPa Calm     93 % 0 mm 0 W/m2
03:31 9.2 °C 7.9 °C 1013.1 hPa Calm     92 % 0 mm 0 W/m2
03:36 9.1 °C 7.9 °C 1012.8 hPa Calm     92 % 0 mm 0 W/m2
03:41 8.9 °C 7.8 °C 1012.8 hPa WNW 3.2 km/h 9.7 km/h 93 % 0 mm 0 W/m2
03:46 9 °C 7.9 °C 1012.8 hPa WNW 1.6 km/h 8 km/h 93 % 0 mm 0 W/m2
03:51 8.9 °C 7.8 °C 1012.8 hPa WNW 3.2 km/h 9.7 km/h 93 % 0 mm 0 W/m2
03:56 8.9 °C 7.8 °C 1012.8 hPa WNW 4.8 km/h 9.7 km/h 93 % 0 mm 0 W/m2
04:02 8.9 °C 8 °C 1012.8 hPa WNW 4.8 km/h 9.7 km/h 94 % 0 mm 0 W/m2
04:07 8.9 °C 8 °C 1012.8 hPa WNW 4.8 km/h 9.7 km/h 94 % 0 mm 0 W/m2
04:12 9 °C 8.1 °C 1013.1 hPa NW 3.2 km/h 8 km/h 94 % 0 mm 0 W/m2
04:17 9.1 °C 8.2 °C 1013.1 hPa Calm   4.8 km/h 94 % 0 mm 0 W/m2
04:22 9.1 °C 8.2 °C 1013.1 hPa Calm   6.4 km/h 94 % 0 mm 0 W/m2
04:27 9.1 °C 8.2 °C 1013.1 hPa Calm     94 % 0 mm 0 W/m2
04:32 9.1 °C 8.2 °C 1013.1 hPa Calm     94 % 0 mm 0 W/m2
04:34 9 °C 8.1 °C 1013.1 hPa Calm     94 % 0 mm 0 W/m2
04:39 8.9 °C 8 °C 1013.1 hPa Calm     94 % 0 mm 0 W/m2
04:44 8.9 °C 8 °C 1013.1 hPa NW 3.2 km/h 6.4 km/h 94 % 0 mm 0 W/m2
04:49 8.9 °C 8 °C 1013.1 hPa NW 1.6 km/h 6.4 km/h 94 % 0 mm 0 W/m2
04:52 8.8 °C 7.9 °C 1013.1 hPa NW 3.2 km/h 8 km/h 94 % 0 mm 0 W/m2
04:57 8.8 °C 7.9 °C 1013.1 hPa NW 1.6 km/h 4.8 km/h 94 % 0 mm 0 W/m2
05:02 8.7 °C 7.8 °C 1013.1 hPa NW 1.6 km/h 3.2 km/h 94 % 0 mm 0 W/m2
05:07 8.7 °C 7.8 °C 1013.1 hPa NW 4.8 km/h 8 km/h 94 % 0 mm 0 W/m2
05:12 8.7 °C 7.9 °C 1013.1 hPa NW 4.8 km/h 9.7 km/h 95 % 0 mm 0 W/m2
05:17 8.8 °C 8.1 °C 1013.4 hPa WNW 4.8 km/h 9.7 km/h 95 % 0 mm 0 W/m2
05:22 8.9 °C 8.2 °C 1013.4 hPa NW 6.4 km/h 9.7 km/h 95 % 0 mm 0 W/m2
05:27 9.2 °C 8.6 °C 1013.4 hPa NW 6.4 km/h 11.3 km/h 96 % 0 mm 0 W/m2
05:32 9.4 °C 8.8 °C 1013.4 hPa NW 4.8 km/h 9.7 km/h 96 % 0 mm 0 W/m2
05:37 9.5 °C 8.9 °C 1013.4 hPa NNW 1.6 km/h 4.8 km/h 96 % 0 mm 0 W/m2
05:42 9.6 °C 9 °C 1013.4 hPa NNW 1.6 km/h 8 km/h 96 % 0 mm 0 W/m2
05:47 9.7 °C 8.9 °C 1013.8 hPa NNW 3.2 km/h 9.7 km/h 95 % 0 mm 0 W/m2
05:52 9.7 °C 8.9 °C 1013.8 hPa North 3.2 km/h 8 km/h 95 % 0.25 mm 0 W/m2
05:57 9.7 °C 8.9 °C 1013.8 hPa NNW 6.4 km/h 12.9 km/h 95 % 0.25 mm 0 W/m2
06:02 9.7 °C 8.9 °C 1013.8 hPa NNW 3.2 km/h 11.3 km/h 95 % 0.25 mm 0 W/m2
06:07 9.6 °C 8.8 °C 1013.8 hPa NNW 6.4 km/h 12.9 km/h 95 % 0.25 mm 0 W/m2
06:12 9.5 °C 8.6 °C 1013.8 hPa NW 6.4 km/h 11.3 km/h 94 % 0.25 mm 0 W/m2
06:17 9.4 °C 8.5 °C 1013.8 hPa Calm   4.8 km/h 94 % 0.25 mm 0 W/m2
06:23 9.4 °C 8.3 °C 1013.8 hPa NW 4.8 km/h 9.7 km/h 93 % 0.25 mm 0 W/m2
06:28 9.3 °C 8.2 °C 1013.8 hPa NW 6.4 km/h 11.3 km/h 93 % 0.51 mm 0 W/m2
06:33 9.3 °C 8.2 °C 1013.8 hPa NNW 3.2 km/h 8 km/h 93 % 0.51 mm 0 W/m2
06:38 9.3 °C 8.2 °C 1014.1 hPa NNW 3.2 km/h 9.7 km/h 93 % 0.51 mm 0 W/m2
06:43 9.3 °C 8.2 °C 1014.1 hPa NW 4.8 km/h 9.7 km/h 93 % 0.51 mm 0 W/m2
06:48 9.2 °C 8.1 °C 1014.1 hPa NW 6.4 km/h 9.7 km/h 93 % 0.51 mm 0 W/m2
06:53 9.3 °C 8.2 °C 1014.1 hPa NW 1.6 km/h 4.8 km/h 93 % 0.25 mm 0 W/m2
06:58 9.3 °C 8.2 °C 1014.1 hPa NW 4.8 km/h 11.3 km/h 93 % 0.25 mm 0 W/m2
07:03 9.3 °C 8.2 °C 1014.4 hPa Calm   1.6 km/h 93 % 0.25 mm 0 W/m2
07:08 9.3 °C 8.2 °C 1014.4 hPa NW 3.2 km/h 8 km/h 93 % 0.25 mm 0 W/m2
07:13 9.3 °C 8.4 °C 1014.4 hPa NW 6.4 km/h 11.3 km/h 94 % 0.25 mm 0 W/m2
07:18 9.3 °C 8.4 °C 1014.4 hPa WNW 4.8 km/h 8 km/h 94 % 0.25 mm 5 W/m2
07:23 9.3 °C 8.4 °C 1014.4 hPa WNW 1.6 km/h 6.4 km/h 94 % 0 mm 9 W/m2
07:28 9.3 °C 8.4 °C 1014.4 hPa Calm   3.2 km/h 94 % 0 mm 9 W/m2
07:33 9.2 °C 8.3 °C 1014.4 hPa Calm   3.2 km/h 94 % 0 mm 14 W/m2
07:34 9.2 °C 8.3 °C 1014.8 hPa Calm   1.6 km/h 94 % 0 mm 14 W/m2
07:39 9.2 °C 8.3 °C 1014.8 hPa Calm   3.2 km/h 94 % 0 mm 14 W/m2
07:44 9.2 °C 8.3 °C 1014.8 hPa Calm   3.2 km/h 94 % 0 mm 19 W/m2
07:49 9.2 °C 8.3 °C 1014.8 hPa Calm   1.6 km/h 94 % 0 mm 21 W/m2
07:59 9.1 °C 8.2 °C 1014.8 hPa NW 1.6 km/h 9.7 km/h 94 % 0 mm 25 W/m2
08:04 9.1 °C 8.2 °C 1014.8 hPa NW 1.6 km/h 9.7 km/h 94 % 0 mm 26 W/m2
08:09 9.1 °C 8.2 °C 1015.1 hPa NW 4.8 km/h 9.7 km/h 94 % 0 mm 28 W/m2
08:14 9.1 °C 8.2 °C 1014.8 hPa Calm   3.2 km/h 94 % 0 mm 28 W/m2
08:19 9.1 °C 8.2 °C 1015.1 hPa Calm   3.2 km/h 94 % 0 mm 28 W/m2
08:24 9.1 °C 8.2 °C 1015.1 hPa Calm   1.6 km/h 94 % 0 mm 32 W/m2
08:29 9.1 °C 8.2 °C 1015.1 hPa NW 3.2 km/h 16.1 km/h 94 % 0 mm 33 W/m2
08:34 9.1 °C 8 °C 1015.1 hPa North 4.8 km/h 11.3 km/h 93 % 0 mm 40 W/m2
08:39 9.1 °C 7.9 °C 1015.5 hPa North 6.4 km/h 9.7 km/h 92 % 0 mm 35 W/m2
08:44 9.1 °C 7.9 °C 1015.5 hPa North 6.4 km/h 12.9 km/h 92 % 0 mm 37 W/m2
08:49 9.1 °C 7.9 °C 1015.5 hPa NNW 4.8 km/h 11.3 km/h 92 % 0 mm 37 W/m2
08:54 9.1 °C 7.7 °C 1015.5 hPa NNW 4.8 km/h 11.3 km/h 91 % 0 mm 32 W/m2
08:59 9.2 °C 7.8 °C 1015.5 hPa NW 8 km/h 16.1 km/h 91 % 0 mm 35 W/m2
09:04 9.2 °C 7.5 °C 1015.5 hPa North 9.7 km/h 16.1 km/h 89 % 0 mm 47 W/m2
09:09 9.2 °C 7.5 °C 1015.5 hPa NNE 6.4 km/h 11.3 km/h 89 % 0 mm 62 W/m2
09:14 9.2 °C 7.3 °C 1015.5 hPa North 6.4 km/h 12.9 km/h 88 % 0 mm 69 W/m2
09:19 9.3 °C 7.2 °C 1015.5 hPa NNE 6.4 km/h 12.9 km/h 87 % 0 mm 69 W/m2
09:24 9.3 °C 7.4 °C 1015.8 hPa North 4.8 km/h 8 km/h 88 % 0 mm 79 W/m2
09:29 9.4 °C 7.5 °C 1015.8 hPa NNW 3.2 km/h 8 km/h 88 % 0 mm 91 W/m2
09:34 9.4 °C 7.3 °C 1015.8 hPa North 6.4 km/h 9.7 km/h 87 % 0 mm 95 W/m2
09:39 9.4 °C 7.2 °C 1015.8 hPa NNW 11.3 km/h 17.7 km/h 86 % 0 mm 104 W/m2
09:44 9.5 °C 7.3 °C 1015.8 hPa NNW 6.4 km/h 11.3 km/h 86 % 0 mm 105 W/m2
09:49 9.6 °C 7.4 °C 1015.8 hPa North 8 km/h 12.9 km/h 86 % 0 mm 97 W/m2
09:54 9.6 °C 7.4 °C 1016.1 hPa NNW 8 km/h 12.9 km/h 86 % 0 mm 93 W/m2
09:59 9.6 °C 7.2 °C 1016.1 hPa North 9.7 km/h 16.1 km/h 85 % 0 mm 100 W/m2
10:04 9.6 °C 7.2 °C 1016.1 hPa NNW 4.8 km/h 12.9 km/h 85 % 0 mm 100 W/m2
10:09 9.6 °C 7.2 °C 1016.1 hPa North 8 km/h 12.9 km/h 85 % 0 mm 104 W/m2
10:14 9.6 °C 7.2 °C 1016.1 hPa North 9.7 km/h 14.5 km/h 85 % 0 mm 102 W/m2
10:19 9.6 °C 7.2 °C 1016.1 hPa North 1.6 km/h 8 km/h 85 % 0 mm 111 W/m2
10:24 9.7 °C 7.4 °C 1016.1 hPa North 6.4 km/h 11.3 km/h 86 % 0 mm 105 W/m2
10:29 9.7 °C 7.4 °C 1016.1 hPa NNW 4.8 km/h 9.7 km/h 86 % 0 mm 120 W/m2
10:34 9.7 °C 7.3 °C 1016.1 hPa NNW 3.2 km/h 9.7 km/h 85 % 0 mm 120 W/m2
10:39 9.8 °C 7.4 °C 1016.1 hPa North 1.6 km/h 8 km/h 85 % 0 mm 121 W/m2
10:44 9.8 °C 7.4 °C 1016.1 hPa NNW 4.8 km/h 11.3 km/h 85 % 0 mm 127 W/m2
10:49 9.8 °C 7.4 °C 1016.1 hPa NNW 3.2 km/h 8 km/h 85 % 0 mm 125 W/m2
10:54 9.9 °C 7.5 °C 1016.1 hPa NNW 3.2 km/h 8 km/h 85 % 0 mm 135 W/m2
11:00 9.9 °C 7.3 °C 1016.1 hPa NNW 4.8 km/h 14.5 km/h 84 % 0 mm 144 W/m2
11:05 9.9 °C 7.3 °C 1016.1 hPa NW 4.8 km/h 9.7 km/h 84 % 0 mm 169 W/m2
11:10 10.1 °C 7.7 °C 1016.1 hPa NW 4.8 km/h 9.7 km/h 85 % 0 mm 207 W/m2
11:15 10.3 °C 7.9 °C 1016.1 hPa NNW 3.2 km/h 9.7 km/h 85 % 0 mm 555 W/m2
11:20 10.6 °C 8 °C 1016.1 hPa North 6.4 km/h 12.9 km/h 84 % 0 mm 585 W/m2
11:25 10.8 °C 8 °C 1016.1 hPa NNW 9.7 km/h 14.5 km/h 83 % 0 mm 450 W/m2
11:30 10.9 °C 7.8 °C 1015.8 hPa NNE 12.9 km/h 19.3 km/h 81 % 0 mm 139 W/m2
11:35 10.8 °C 7.5 °C 1015.8 hPa NNE 11.3 km/h 17.7 km/h 80 % 0 mm 362 W/m2
11:40 10.7 °C 7.6 °C 1015.8 hPa NNE 6.4 km/h 12.9 km/h 81 % 0 mm 418 W/m2
11:45 10.7 °C 7.6 °C 1015.8 hPa NNE 6.4 km/h 12.9 km/h 81 % 0 mm 425 W/m2
11:50 10.8 °C 7.7 °C 1015.8 hPa NNE 8 km/h 14.5 km/h 81 % 0 mm 445 W/m2
11:55 10.7 °C 7.4 °C 1015.8 hPa NNE 11.3 km/h 16.1 km/h 80 % 0 mm 97 W/m2
12:01 10.6 °C 7.5 °C 1015.8 hPa North 4.8 km/h 16.1 km/h 81 % 0 mm 114 W/m2
12:06 10.4 °C 7.3 °C 1015.8 hPa NE 4.8 km/h 12.9 km/h 81 % 0 mm 148 W/m2
12:11 10.4 °C 7.3 °C 1016.1 hPa NNE 8 km/h 12.9 km/h 81 % 0 mm 84 W/m2
12:16 10.3 °C 7.2 °C 1016.1 hPa NNE 8 km/h 11.3 km/h 81 % 0 mm 86 W/m2
12:21 10.2 °C 7.1 °C 1015.8 hPa NNE 4.8 km/h 9.7 km/h 81 % 0 mm 118 W/m2
12:26 10.2 °C 7.1 °C 1015.8 hPa NE 3.2 km/h 8 km/h 81 % 0 mm 153 W/m2
12:31 10.3 °C 7.2 °C 1016.1 hPa Calm   1.6 km/h 81 % 0 mm 144 W/m2
12:36 10.4 °C 7.3 °C 1016.1 hPa North 4.8 km/h 11.3 km/h 81 % 0 mm 127 W/m2
12:41 10.4 °C 7.1 °C 1016.1 hPa NNE 6.4 km/h 9.7 km/h 80 % 0 mm 134 W/m2
12:46 10.5 °C 7.4 °C 1016.1 hPa North 3.2 km/h 9.7 km/h 81 % 0 mm 137 W/m2
12:51 10.5 °C 7.2 °C 1016.1 hPa NE 4.8 km/h 9.7 km/h 80 % 0 mm 142 W/m2
12:56 10.6 °C 7.3 °C 1016.1 hPa Calm   4.8 km/h 80 % 0 mm 123 W/m2
13:01 10.6 °C 7.3 °C 1016.1 hPa NNE 3.2 km/h 12.9 km/h 80 % 0 mm 95 W/m2
13:06 10.6 °C 7.3 °C 1015.8 hPa NNE 1.6 km/h 6.4 km/h 80 % 0 mm 84 W/m2
13:11 10.6 °C 7.3 °C 1016.1 hPa North 1.6 km/h 4.8 km/h 80 % 0 mm 104 W/m2
13:16 10.5 °C 7 °C 1016.1 hPa North 6.4 km/h 11.3 km/h 79 % 0 mm 102 W/m2
13:21 10.5 °C 7.2 °C 1015.8 hPa NE 1.6 km/h 4.8 km/h 80 % 0 mm 104 W/m2
13:26 10.5 °C 7.2 °C 1015.8 hPa NNE 1.6 km/h 8 km/h 80 % 0 mm 127 W/m2
13:31 10.4 °C 7.1 °C 1016.1 hPa NE 6.4 km/h 9.7 km/h 80 % 0 mm 128 W/m2
13:36 10.5 °C 7.2 °C 1015.8 hPa North 4.8 km/h 9.7 km/h 80 % 0 mm 139 W/m2
13:41 10.5 °C 7.2 °C 1015.8 hPa North 6.4 km/h 9.7 km/h 80 % 0 mm 142 W/m2
13:46 10.6 °C 7.3 °C 1015.8 hPa North 4.8 km/h 8 km/h 80 % 0 mm 132 W/m2
13:51 10.6 °C 7.1 °C 1015.8 hPa Calm   3.2 km/h 79 % 0 mm 111 W/m2
13:56 10.6 °C 7.1 °C 1015.8 hPa North 1.6 km/h 6.4 km/h 79 % 0 mm 98 W/m2
14:01 10.6 °C 6.9 °C 1015.8 hPa North 4.8 km/h 8 km/h 78 % 0 mm 79 W/m2
14:02 10.6 °C 6.9 °C 1015.8 hPa NNE 3.2 km/h 8 km/h 78 % 0 mm 76 W/m2
14:07 10.6 °C 6.9 °C 1015.8 hPa North 3.2 km/h 8 km/h 78 % 0 mm 62 W/m2
14:12 10.5 °C 6.8 °C 1015.8 hPa Calm     78 % 0 mm 53 W/m2
14:17 10.5 °C 6.8 °C 1015.8 hPa Calm     78 % 0 mm 49 W/m2
14:22 10.4 °C 6.9 °C 1015.8 hPa Calm     79 % 0 mm 42 W/m2
14:27 10.5 °C 7 °C 1015.8 hPa Calm     79 % 0 mm 37 W/m2
14:32 10.5 °C 7 °C 1015.8 hPa Calm     79 % 0 mm 33 W/m2
14:37 10.4 °C 6.9 °C 1015.8 hPa North 1.6 km/h 6.4 km/h 79 % 0 mm 32 W/m2
14:42 10.4 °C 6.9 °C 1015.8 hPa NNE 1.6 km/h 4.8 km/h 79 % 0 mm 26 W/m2
14:47 10.4 °C 6.9 °C 1015.8 hPa Calm     79 % 0 mm 25 W/m2
14:52 10.3 °C 6.8 °C 1015.8 hPa Calm     79 % 0 mm 25 W/m2
14:57 10.3 °C 6.8 °C 1016.1 hPa Calm   3.2 km/h 79 % 0 mm 23 W/m2
15:02 10.3 °C 7 °C 1016.1 hPa Calm   3.2 km/h 80 % 0 mm 21 W/m2
15:08 10.2 °C 6.9 °C 1016.1 hPa Calm   1.6 km/h 80 % 0 mm 21 W/m2
15:13 10.2 °C 6.9 °C 1015.8 hPa NNE 3.2 km/h 8 km/h 80 % 0 mm 21 W/m2
15:18 10.1 °C 6.8 °C 1015.8 hPa NNE 1.6 km/h 4.8 km/h 80 % 0 mm 19 W/m2
15:23 10.1 °C 6.8 °C 1015.8 hPa NNE 3.2 km/h 6.4 km/h 80 % 0 mm 21 W/m2
15:28 10.1 °C 7 °C 1015.8 hPa NNE 1.6 km/h 3.2 km/h 81 % 0 mm 19 W/m2
15:33 10 °C 6.9 °C 1016.1 hPa Calm   1.6 km/h 81 % 0 mm 19 W/m2
15:38 10 °C 6.9 °C 1016.1 hPa Calm     81 % 0 mm 21 W/m2
15:43 9.9 °C 6.8 °C 1015.8 hPa Calm     81 % 0 mm 23 W/m2
15:48 9.9 °C 6.9 °C 1015.8 hPa Calm     82 % 0 mm 19 W/m2
15:53 9.9 °C 6.9 °C 1015.8 hPa NE 4.8 km/h 8 km/h 82 % 0 mm 18 W/m2
15:58 9.8 °C 6.9 °C 1015.8 hPa NE 4.8 km/h 9.7 km/h 82 % 0 mm 16 W/m2
16:03 9.8 °C 6.9 °C 1015.8 hPa ENE 4.8 km/h 9.7 km/h 82 % 0 mm 12 W/m2
16:08 9.8 °C 6.9 °C 1015.8 hPa NE 4.8 km/h 8 km/h 82 % 0 mm 9 W/m2
16:13 9.8 °C 6.9 °C 1015.8 hPa Calm   3.2 km/h 82 % 0 mm 7 W/m2
16:18 9.8 °C 6.9 °C 1016.1 hPa Calm     82 % 0 mm 5 W/m2
16:23 9.7 °C 6.9 °C 1016.1 hPa ENE 1.6 km/h 3.2 km/h 83 % 0 mm 0 W/m2
16:28 9.7 °C 6.9 °C 1016.1 hPa Calm     83 % 0 mm 0 W/m2
16:33 9.7 °C 6.9 °C 1016.1 hPa Calm     83 % 0 mm 0 W/m2
16:38 9.7 °C 6.9 °C 1016.1 hPa Calm     83 % 0 mm 0 W/m2
16:43 9.6 °C 7 °C 1016.1 hPa Calm     84 % 0 mm 0 W/m2
16:48 9.6 °C 7 °C 1016.1 hPa Calm     84 % 0 mm 0 W/m2
16:53 9.6 °C 7 °C 1016.1 hPa Calm     84 % 0 mm 0 W/m2
16:58 9.5 °C 6.9 °C 1016.1 hPa Calm     84 % 0 mm 0 W/m2
17:03 9.5 °C 6.9 °C 1016.1 hPa Calm     84 % 0 mm 0 W/m2
17:08 9.4 °C 7 °C 1016.1 hPa Calm     85 % 0 mm 0 W/m2
17:13 9.4 °C 7 °C 1016.1 hPa Calm     85 % 0 mm 0 W/m2
17:18 9.4 °C 7 °C 1016.1 hPa NW 1.6 km/h 3.2 km/h 85 % 0 mm 0 W/m2
17:23 9.3 °C 7.1 °C 1016.1 hPa Calm     86 % 0 mm 0 W/m2
17:28 9.3 °C 7.1 °C 1016.1 hPa Calm     86 % 0 mm 0 W/m2
17:33 9.3 °C 7.1 °C 1016.1 hPa Calm   3.2 km/h 86 % 0 mm 0 W/m2
17:38 9.2 °C 7 °C 1016.1 hPa Calm     86 % 0 mm 0 W/m2
17:43 9.2 °C 7 °C 1016.1 hPa Calm     86 % 0 mm 0 W/m2
17:48 9.2 °C 7 °C 1016.1 hPa Calm   1.6 km/h 86 % 0 mm 0 W/m2
17:53 9.2 °C 7.2 °C 1016.5 hPa Calm     87 % 0 mm 0 W/m2
17:58 9.2 °C 7.2 °C 1016.1 hPa Calm     87 % 0 mm 0 W/m2
18:03 9.2 °C 7.2 °C 1016.1 hPa Calm     87 % 0 mm 0 W/m2
18:08 9.1 °C 7.1 °C 1016.5 hPa Calm     87 % 0 mm 0 W/m2
18:13 9.1 °C 7.1 °C 1016.5 hPa Calm     87 % 0 mm 0 W/m2
18:18 9 °C 7.1 °C 1016.1 hPa NNE 1.6 km/h 6.4 km/h 88 % 0 mm 0 W/m2
18:23 9 °C 7.1 °C 1016.1 hPa ENE 3.2 km/h 6.4 km/h 88 % 0 mm 0 W/m2
18:28 9 °C 7.1 °C 1016.1 hPa Calm   3.2 km/h 88 % 0 mm 0 W/m2
18:33 9 °C 7.1 °C 1016.5 hPa SW 4.8 km/h 9.7 km/h 88 % 0 mm 0 W/m2
18:38 9 °C 7.1 °C 1016.5 hPa South 6.4 km/h 11.3 km/h 88 % 0 mm 0 W/m2
18:43 8.9 °C 6.8 °C 1016.5 hPa Calm     87 % 0 mm 0 W/m2
18:48 8.9 °C 6.8 °C 1016.5 hPa Calm     87 % 0 mm 0 W/m2
18:53 9 °C 7.1 °C 1016.5 hPa South 3.2 km/h 6.4 km/h 88 % 0 mm 0 W/m2
18:58 9 °C 7.1 °C 1016.1 hPa Calm     88 % 0 mm 0 W/m2
19:03 9.1 °C 7.1 °C 1016.1 hPa Calm     87 % 0 mm 0 W/m2
19:08 9 °C 6.9 °C 1016.5 hPa Calm     87 % 0 mm 0 W/m2
19:13 9 °C 6.9 °C 1016.5 hPa Calm     87 % 0 mm 0 W/m2
19:18 8.9 °C 6.8 °C 1016.5 hPa Calm     87 % 0 mm 0 W/m2
19:23 8.9 °C 6.8 °C 1016.5 hPa Calm     87 % 0 mm 0 W/m2
19:28 8.9 °C 6.8 °C 1016.1 hPa Calm     87 % 0 mm 0 W/m2
19:33 8.8 °C 6.9 °C 1016.1 hPa Calm     88 % 0 mm 0 W/m2
19:38 8.8 °C 6.9 °C 1016.1 hPa Calm     88 % 0 mm 0 W/m2
19:43 8.8 °C 6.9 °C 1016.5 hPa Calm     88 % 0 mm 0 W/m2
19:48 8.7 °C 6.8 °C 1016.5 hPa Calm     88 % 0 mm 0 W/m2
19:54 8.7 °C 6.8 °C 1016.5 hPa Calm     88 % 0 mm 0 W/m2
19:59 8.7 °C 7 °C 1016.5 hPa Calm     89 % 0 mm 0 W/m2
20:04 8.7 °C 7 °C 1016.1 hPa Calm     89 % 0 mm 0 W/m2
20:09 8.7 °C 7 °C 1016.1 hPa Calm     89 % 0 mm 0 W/m2
20:14 8.7 °C 7 °C 1016.1 hPa Calm     89 % 0 mm 0 W/m2
20:19 8.7 °C 7 °C 1016.5 hPa Calm     89 % 0 mm 0 W/m2
20:24 8.7 °C 7 °C 1016.1 hPa Calm     89 % 0 mm 0 W/m2
20:29 8.7 °C 7 °C 1016.1 hPa Calm     89 % 0 mm 0 W/m2
20:34 8.6 °C 6.9 °C 1016.1 hPa Calm     89 % 0 mm 0 W/m2
20:39 8.6 °C 7.1 °C 1016.1 hPa Calm     90 % 0 mm 0 W/m2
20:44 8.6 °C 7.1 °C 1016.1 hPa Calm     90 % 0 mm 0 W/m2
20:49 8.6 °C 7.1 °C 1016.1 hPa Calm     90 % 0 mm 0 W/m2
20:54 8.6 °C 6.9 °C 1016.1 hPa East 4.8 km/h 8 km/h 89 % 0 mm 0 W/m2
20:59 8.6 °C 6.9 °C 1016.1 hPa Calm     89 % 0 mm 0 W/m2
21:04 8.6 °C 7.1 °C 1016.1 hPa Calm   3.2 km/h 90 % 0 mm 0 W/m2
21:09 8.6 °C 7.1 °C 1016.1 hPa Calm     90 % 0 mm 0 W/m2
21:14 8.6 °C 7.1 °C 1016.5 hPa SSW 3.2 km/h 9.7 km/h 90 % 0 mm 0 W/m2
21:19 8.6 °C 7.1 °C 1016.5 hPa Calm   3.2 km/h 90 % 0 mm 0 W/m2
21:24 8.6 °C 7.1 °C 1016.5 hPa Calm     90 % 0 mm 0 W/m2
21:29 8.5 °C 6.9 °C 1016.1 hPa Calm     90 % 0 mm 0 W/m2
21:34 8.4 °C 6.8 °C 1016.1 hPa Calm     90 % 0 mm 0 W/m2
21:39 8.4 °C 6.8 °C 1016.1 hPa Calm     90 % 0 mm 0 W/m2
21:44 8.4 °C 6.8 °C 1016.1 hPa Calm     90 % 0 mm 0 W/m2
21:49 8.4 °C 6.8 °C 1016.1 hPa Calm     90 % 0 mm 0 W/m2
21:55 8.4 °C 7 °C 1016.1 hPa Calm     91 % 0 mm 0 W/m2
22:00 8.4 °C 7 °C 1016.1 hPa Calm     91 % 0 mm 0 W/m2
22:05 8.4 °C 7 °C 1016.1 hPa Calm   1.6 km/h 91 % 0 mm 0 W/m2
22:10 8.4 °C 7 °C 1016.1 hPa Calm     91 % 0 mm 0 W/m2
22:15 8.4 °C 7 °C 1016.1 hPa Calm     91 % 0 mm 0 W/m2
22:20 8.4 °C 7 °C 1015.8 hPa Calm     91 % 0 mm 0 W/m2
22:25 8.4 °C 7 °C 1015.8 hPa Calm     91 % 0 mm 0 W/m2
22:30 8.3 °C 6.9 °C 1015.8 hPa Calm   1.6 km/h 91 % 0 mm 0 W/m2
22:35 8.4 °C 7 °C 1015.8 hPa Calm     91 % 0 mm 0 W/m2
22:40 8.4 °C 7 °C 1015.8 hPa Calm     91 % 0 mm 0 W/m2
22:45 8.4 °C 7 °C 1015.8 hPa Calm     91 % 0 mm 0 W/m2
22:50 8.4 °C 7 °C 1015.8 hPa Calm     91 % 0 mm 0 W/m2
22:55 8.4 °C 7 °C 1015.8 hPa Calm     91 % 0 mm 0 W/m2
23:00 8.3 °C 6.9 °C 1015.8 hPa Calm     91 % 0 mm 0 W/m2
23:10 8.4 °C 7 °C 1015.8 hPa Calm     91 % 0 mm 0 W/m2
23:15 8.4 °C 7 °C 1015.8 hPa Calm   1.6 km/h 91 % 0 mm 0 W/m2
23:20 8.5 °C 7.1 °C 1015.8 hPa Calm   3.2 km/h 91 % 0 mm 0 W/m2
23:25 8.5 °C 7.1 °C 1015.5 hPa SSW 3.2 km/h 8 km/h 91 % 0 mm 0 W/m2
23:30 8.6 °C 7.2 °C 1015.5 hPa Calm   1.6 km/h 91 % 0 mm 0 W/m2
23:35 8.6 °C 7.2 °C 1015.5 hPa Calm   3.2 km/h 91 % 0 mm 0 W/m2
23:40 8.6 °C 7.2 °C 1015.5 hPa SSW 1.6 km/h 4.8 km/h 91 % 0 mm 0 W/m2
23:45 8.6 °C 7.2 °C 1015.5 hPa SSE 4.8 km/h 8 km/h 91 % 0 mm 0 W/m2
23:50 8.6 °C 7.2 °C 1015.5 hPa SSE 3.2 km/h 8 km/h 91 % 0 mm 0 W/m2
23:55 8.6 °C 7.2 °C 1015.5 hPa Calm   3.2 km/h 91 % 0 mm 0 W/m2
Delerius-Weather
Compliments of Weather Underground - 2.25 mb

Data updates at regular intervals.